Terminal Aerodrome Forecast
Issued by NWS Nashville, TN

Current Version | Previous Version | Text Only | Print | Product List | Glossary Off
Versions: 1 2 3 4 5 6 7 8 9 10 11 12 13 14 15 16 17 18 19 20 21 22 23

000
FTUS44 KOHX 202300
TAFCSV
TAF
KCSV 202323Z 2100/2124 24007KT P6SM SCT100 SCT150
     FM210600 30003KT P6SM SCT050
      TEMPO 2109/2112 4SM BR BKN050
     FM211500 32008KT P6SM BKN050=

USA.gov is the U.S. government's official web portal to all federal, state and local government web resources and services.